This is the latest recevied weather packets stored in our database for station/object KB1JDX. If no packets are shown the sender has not sent any weather packets the latest 10 day(s).
| Time | Temp. | Humidity | Pressure | Rain* | Wind** | Luminosity | Snow |
|---|---|---|---|---|---|---|---|
| 1788021137 | 24.44° C | 46% | 1022.3 hPa | 0 mm | 0 m/s | - | - |
| 1788021073 | 24.44° C | 47% | 1022.3 hPa | 0 mm | 0 m/s | - | - |
| 1788018737 | 23.33° C | 49% | 1022.3 hPa | 0 mm | 0 m/s | - | - |
| 1788017537 | 22.78° C | 49% | 1022.6 hPa | 0 mm | 0 m/s | - | - |
| 1788017473 | 22.78° C | 48% | 1022.6 hPa | 0 mm | 0 m/s | - | - |
| 1788016339 | 22.78° C | 47% | 1022.8 hPa | 0 mm | 0 m/s | - | - |
| 1788015137 | 22.22° C | 47% | 1022.9 hPa | 0 mm | 0 m/s | - | - |
| 1788013939 | 21.67° C | 46% | 1022.9 hPa | 0 mm | 0 m/s | - | - |
| 1788013873 | 21.67° C | 47% | 1022.9 hPa | 0 mm | 0 m/s | - | - |
| 1788010339 | 19.44° C | 37% | 1022.5 hPa | 0 mm | 0 m/s | - | - |
| 1788010273 | 19.44° C | 36% | 1022.6 hPa | 0 mm | 0 m/s | - | - |
| 1788006739 | 16.67° C | 100% | 1022.1 hPa | 0 mm | 0 m/s | - | - |
| 1788006673 | 16.11° C | 100% | 1022.1 hPa | 0 mm | 0 m/s | - | - |
| 1788005538 | 15.56° C | 100% | 1022 hPa | 0 mm | 0 m/s | - | - |
| 1788003138 | 14.44° C | 100% | 1022 hPa | 0 mm | 0 m/s | - | - |
| 1788003073 | 14.44° C | 100% | 1021.9 hPa | 0 mm | 0 m/s | - | - |
| 1788000738 | 14.44° C | 100% | 1021.5 hPa | 0 mm | 0 m/s | - | - |
| 1787999537 | 14.44° C | 100% | 1021.1 hPa | 0 mm | 0 m/s | - | - |
| 1787999473 | 14.44° C | 100% | 1021.1 hPa | 0 mm | 0 m/s | - | - |
| 1787995937 | 15° C | 100% | 1020.7 hPa | 0 mm | 0 m/s | - | - |
| 1787995872 | 15° C | 100% | 1020.7 hPa | 0 mm | 0 m/s | - | - |
| 1787993537 | 15.56° C | 100% | 1020.2 hPa | 0 mm | 0 m/s | - | - |
| 1787992273 | 15.56° C | 100% | 1020.1 hPa | 0 mm | 0 m/s | - | - |
| 1787991137 | 15.56° C | 100% | 1020.1 hPa | 0 mm | 0 m/s | - | - |
| 1787988673 | 16.11° C | 100% | 1019.4 hPa | 0 mm | 0 m/s | - | - |
* Rain latest hour (hover to see other rain measurements)
** Current wind speed in m/s (hover to see current wind gust speed)